createdAt,value
2023-04-14T00:00:02.159Z,47.60
2023-04-14T00:03:09.736Z,43.10
2023-04-14T00:05:44.603Z,41.50
2023-04-14T00:08:24.972Z,40.30
2023-04-14T00:10:57.819Z,43.00
2023-04-14T00:13:29.886Z,36.10
2023-04-14T00:16:04.965Z,38.80
2023-04-14T00:18:38.327Z,39.40
2023-04-14T00:21:13.747Z,40.10
2023-04-14T00:23:47.049Z,36.80
2023-04-14T00:26:18.584Z,37.70
2023-04-14T00:28:49.697Z,38.40
2023-04-14T00:31:35.966Z,40.00
2023-04-14T00:34:09.285Z,38.90
2023-04-14T00:36:42.201Z,40.50
2023-04-14T00:39:14.864Z,41.60
2023-04-14T00:44:47.641Z,44.00
2023-04-14T00:47:29.045Z,44.10
2023-04-14T00:50:17.060Z,45.20
2023-04-14T00:52:53.179Z,45.20
2023-04-14T00:55:36.676Z,43.10
2023-04-14T00:58:36.607Z,44.90
2023-04-14T01:01:23.269Z,42.80
2023-04-14T01:04:01.890Z,41.00
2023-04-14T01:06:42.417Z,43.40
2023-04-14T01:09:27.732Z,45.00
2023-04-14T01:12:25.105Z,45.80
2023-04-14T01:15:44.081Z,46.60
2023-04-14T01:18:45.755Z,46.90
2023-04-14T01:21:26.995Z,46.50
2023-04-14T01:24:41.759Z,44.80
2023-04-14T01:27:49.172Z,46.80
2023-04-14T01:30:45.342Z,46.00
2023-04-14T01:33:29.895Z,44.30
2023-04-14T01:36:10.770Z,41.20
2023-04-14T01:38:59.493Z,37.80
2023-04-14T01:41:42.649Z,40.60
2023-04-14T01:44:25.195Z,41.90
2023-04-14T01:47:11.190Z,42.00
2023-04-14T01:49:45.708Z,40.70
2023-04-14T01:55:17.569Z,41.80
2023-04-14T01:58:01.401Z,42.70
2023-04-14T02:00:45.309Z,44.40
2023-04-14T02:03:36.985Z,45.70
2023-04-14T02:06:27.037Z,41.70
2023-04-14T02:09:13.598Z,41.40
2023-04-14T02:12:05.134Z,41.70
2023-04-14T02:14:50.743Z,39.30
2023-04-14T02:17:29.545Z,38.20
2023-04-14T02:20:04.502Z,38.10
2023-04-14T02:22:38.692Z,39.10
2023-04-14T02:25:14.505Z,40.10
2023-04-14T02:28:17.937Z,37.10
2023-04-14T02:31:05.614Z,36.80
2023-04-14T02:33:54.734Z,38.80
2023-04-14T02:36:49.081Z,36.40
2023-04-14T02:39:41.964Z,36.90
2023-04-14T02:42:33.976Z,39.20
2023-04-14T02:45:38.181Z,39.50
2023-04-14T02:48:19.229Z,40.10
2023-04-14T02:51:02.811Z,40.40
2023-04-14T02:53:36.367Z,37.50
2023-04-14T02:56:32.553Z,38.50
2023-04-14T02:59:17.420Z,41.10
2023-04-14T03:02:05.046Z,41.60
2023-04-14T03:04:41.676Z,41.60
2023-04-14T03:07:54.263Z,44.20
2023-04-14T03:10:35.432Z,46.30
2023-04-14T03:13:19.904Z,46.00
2023-04-14T03:16:09.574Z,46.00
2023-04-14T03:19:13.077Z,48.80
2023-04-14T03:22:13.392Z,46.40
2023-04-14T03:25:02.125Z,47.50
2023-04-14T03:27:45.465Z,47.10
2023-04-14T03:30:30.664Z,48.70
2023-04-14T03:33:12.274Z,89.60
2023-04-14T03:35:55.864Z,84.80
2023-04-14T03:38:48.156Z,53.70
2023-04-14T03:41:21.808Z,47.20
2023-04-14T03:44:02.380Z,47.90
2023-04-14T03:46:51.531Z,46.00
2023-04-14T03:49:34.010Z,49.70
2023-04-14T03:52:17.293Z,50.10
2023-04-14T03:55:14.497Z,54.10
2023-04-14T03:58:29.119Z,55.50
2023-04-14T04:01:14.908Z,56.10
2023-04-14T04:03:49.278Z,53.60
2023-04-14T04:06:32.303Z,54.90
2023-04-14T04:09:12.521Z,55.50
2023-04-14T04:11:53.410Z,56.30
2023-04-14T04:14:38.533Z,58.90
2023-04-14T04:17:20.525Z,55.20
2023-04-14T04:20:12.730Z,56.20
2023-04-14T04:22:55.254Z,51.80
2023-04-14T04:25:59.810Z,55.60
2023-04-14T04:28:46.805Z,59.50
2023-04-14T04:31:27.581Z,58.60
2023-04-14T04:34:14.196Z,64.70
2023-04-14T04:36:45.747Z,67.20
2023-04-14T04:40:31.594Z,65.80
2023-04-14T04:43:04.242Z,65.00
2023-04-14T04:46:41.327Z,68.30
2023-04-14T04:49:11.371Z,61.80
2023-04-14T04:51:51.520Z,60.20
2023-04-14T04:54:28.211Z,62.80
2023-04-14T04:57:01.354Z,58.70
2023-04-14T04:59:36.057Z,55.80
2023-04-14T05:02:22.010Z,54.70
2023-04-14T05:04:52.286Z,53.70
2023-04-14T05:07:22.724Z,57.50
2023-04-14T05:10:01.183Z,53.90
2023-04-14T05:12:32.039Z,53.30
2023-04-14T05:15:12.565Z,53.50
2023-04-14T05:17:50.517Z,49.70
2023-04-14T05:20:21.579Z,48.20
2023-04-14T05:22:57.830Z,47.50
2023-04-14T05:25:37.742Z,47.10
2023-04-14T05:28:11.125Z,48.00
2023-04-14T05:30:43.531Z,51.00
2023-04-14T05:33:20.752Z,51.00
2023-04-14T05:35:52.772Z,53.20
2023-04-14T05:38:26.176Z,53.40
2023-04-14T05:41:06.131Z,52.70
2023-04-14T05:43:37.582Z,51.80
2023-04-14T05:46:25.669Z,47.70
2023-04-14T05:49:04.827Z,37.30
2023-04-14T05:51:44.081Z,38.40
2023-04-14T05:54:20.838Z,35.50
2023-04-14T05:56:54.274Z,35.60
2023-04-14T05:59:32.256Z,38.50
2023-04-14T06:02:09.072Z,35.40
2023-04-14T06:04:40.567Z,36.20
2023-04-14T06:07:10.742Z,34.60
2023-04-14T06:09:47.076Z,34.60
2023-04-14T06:12:17.166Z,37.30
2023-04-14T06:14:49.430Z,38.50
2023-04-14T06:17:29.023Z,42.80
2023-04-14T06:20:00.156Z,41.80
2023-04-14T06:22:35.559Z,38.90
2023-04-14T06:25:07.094Z,39.40
2023-04-14T06:27:48.904Z,38.50
2023-04-14T06:30:44.290Z,39.20
2023-04-14T06:33:16.488Z,40.40
2023-04-14T06:38:21.959Z,39.90
2023-04-14T06:40:56.887Z,42.20
2023-04-14T06:43:29.851Z,46.10
2023-04-14T06:46:15.137Z,50.30
2023-04-14T06:48:48.547Z,51.10
2023-04-14T06:51:21.264Z,45.90
2023-04-14T06:53:52.160Z,42.00
2023-04-14T06:56:28.500Z,39.60
2023-04-14T06:59:06.688Z,40.80
2023-04-14T07:01:37.330Z,37.90
2023-04-14T07:04:09.370Z,39.30
2023-04-14T07:06:42.983Z,39.10
2023-04-14T07:09:23.073Z,37.20
2023-04-14T07:11:54.293Z,40.00
2023-04-14T07:14:27.207Z,38.60
2023-04-14T07:16:57.577Z,35.40
2023-04-14T07:19:27.541Z,36.30
2023-04-14T07:22:05.484Z,35.30
2023-04-14T07:24:42.417Z,37.20
2023-04-14T07:27:20.172Z,33.90
2023-04-14T07:30:02.077Z,34.70
2023-04-14T07:32:42.836Z,33.60
2023-04-14T07:35:15.314Z,36.30
2023-04-14T07:37:54.390Z,37.70
2023-04-14T07:40:25.153Z,35.40
2023-04-14T07:43:01.897Z,33.60
2023-04-14T07:45:42.280Z,33.30
2023-04-14T07:48:18.343Z,33.10
2023-04-14T07:50:55.588Z,34.10
2023-04-14T07:53:44.065Z,33.00
2023-04-14T07:56:24.032Z,33.30
2023-04-14T07:59:19.907Z,32.30
2023-04-14T08:02:03.760Z,29.60
2023-04-14T08:04:44.278Z,30.30
2023-04-14T08:07:17.012Z,32.20
2023-04-14T08:09:55.554Z,28.30
2023-04-14T08:12:36.739Z,26.50
2023-04-14T08:15:13.419Z,27.60
2023-04-14T08:17:50.140Z,27.00
2023-04-14T08:20:28.961Z,27.30
2023-04-14T08:23:06.582Z,28.00
2023-04-14T08:25:42.464Z,25.30
2023-04-14T08:28:22.702Z,26.20
2023-04-14T08:31:01.677Z,24.70
2023-04-14T08:33:40.236Z,25.60
2023-04-14T08:39:28.025Z,24.80
2023-04-14T08:44:57.540Z,26.90
2023-04-14T08:47:32.963Z,25.00
2023-04-14T08:50:28.088Z,25.00
2023-04-14T08:55:51.696Z,22.70
2023-04-14T08:58:37.762Z,23.90
2023-04-14T09:01:35.148Z,22.50
2023-04-14T09:04:17.156Z,23.10
2023-04-14T09:07:02.997Z,23.30
2023-04-14T09:09:50.663Z,23.50
2023-04-14T09:12:38.611Z,26.10
2023-04-14T09:15:13.648Z,23.80
2023-04-14T09:17:58.860Z,21.20
2023-04-14T09:20:42.217Z,23.00
2023-04-14T09:23:13.495Z,23.50
2023-04-14T09:25:56.940Z,20.90
2023-04-14T09:28:50.577Z,22.20
2023-04-14T09:31:54.073Z,22.10
2023-04-14T09:34:58.634Z,20.60
2023-04-14T09:38:02.027Z,20.90
2023-04-14T09:40:38.792Z,22.20
2023-04-14T09:43:49.488Z,21.30
2023-04-14T09:46:40.584Z,20.20
2023-04-14T09:49:20.370Z,18.00
2023-04-14T09:52:04.164Z,19.10
2023-04-14T09:54:41.088Z,19.50
2023-04-14T09:57:33.861Z,16.80
2023-04-14T10:03:20.456Z,12.40
2023-04-14T10:06:24.707Z,12.70
2023-04-14T10:09:03.737Z,10.60
2023-04-14T10:12:14.742Z,15.90
2023-04-14T10:14:48.991Z,15.30
2023-04-14T10:17:39.703Z,12.90
2023-04-14T10:20:16.465Z,12.30
2023-04-14T10:23:19.900Z,9.40
2023-04-14T10:26:40.793Z,9.50
2023-04-14T10:29:24.655Z,9.10
2023-04-14T10:32:22.376Z,8.20
2023-04-14T10:35:14.377Z,7.00
2023-04-14T10:37:59.510Z,6.40
2023-04-14T10:41:11.394Z,6.00
2023-04-14T10:43:55.718Z,5.50
2023-04-14T10:47:17.346Z,6.50
2023-04-14T10:50:06.397Z,4.80
2023-04-14T10:53:07.085Z,4.10
2023-04-14T10:56:01.130Z,3.50
2023-04-14T10:59:02.308Z,4.40
2023-04-14T11:01:47.289Z,5.10
2023-04-14T11:04:43.173Z,3.80
2023-04-14T11:07:26.911Z,3.40
2023-04-14T11:10:18.362Z,3.90
2023-04-14T11:13:08.305Z,3.40
2023-04-14T11:16:15.178Z,3.40
2023-04-14T11:19:07.895Z,3.80
2023-04-14T11:21:58.331Z,3.90
2023-04-14T11:24:52.189Z,3.40
2023-04-14T11:27:48.420Z,3.40
2023-04-14T11:31:04.271Z,3.50
2023-04-14T11:33:58.688Z,3.50
2023-04-14T11:36:45.000Z,4.00
2023-04-14T11:39:29.233Z,3.70
2023-04-14T11:42:04.067Z,3.70
2023-04-14T11:44:47.444Z,3.50
2023-04-14T11:47:34.534Z,3.40
2023-04-14T11:50:06.474Z,3.20
2023-04-14T11:53:00.124Z,3.80
2023-04-14T11:55:50.439Z,3.60
2023-04-14T11:58:27.606Z,3.80
2023-04-14T12:01:05.520Z,3.50
2023-04-14T12:03:45.396Z,3.50
2023-04-14T12:06:33.620Z,4.10
2023-04-14T12:09:15.105Z,3.60
2023-04-14T12:12:01.298Z,3.70
2023-04-14T12:15:00.931Z,3.50
2023-04-14T12:17:34.998Z,3.30
2023-04-14T12:20:42.365Z,3.50
2023-04-14T12:23:14.411Z,4.20
2023-04-14T12:25:59.229Z,5.40
2023-04-14T12:29:11.270Z,5.00
2023-04-14T12:31:46.245Z,3.50
2023-04-14T12:35:01.795Z,3.60
2023-04-14T12:37:54.012Z,4.20
2023-04-14T12:41:05.335Z,3.40
2023-04-14T12:47:11.536Z,3.60
2023-04-14T12:50:51.975Z,3.80
2023-04-14T12:53:35.568Z,3.80
2023-04-14T12:56:23.000Z,4.30
2023-04-14T12:59:08.181Z,5.20
2023-04-14T13:01:44.318Z,4.50
2023-04-14T13:04:30.392Z,4.60
2023-04-14T13:07:42.026Z,4.70
2023-04-14T13:10:16.631Z,5.10
2023-04-14T13:13:07.586Z,4.60
2023-04-14T13:16:13.566Z,4.70
2023-04-14T13:18:39.528Z,4.60
2023-04-14T13:21:29.518Z,5.00
2023-04-14T13:24:03.920Z,5.40
2023-04-14T13:26:46.959Z,4.90
2023-04-14T13:29:25.440Z,5.10
2023-04-14T13:32:02.569Z,6.00
2023-04-14T13:34:50.772Z,11.50
2023-04-14T13:37:30.683Z,8.00
2023-04-14T13:43:07.555Z,5.50
2023-04-14T13:46:00.886Z,5.30
2023-04-14T13:48:42.187Z,5.50
2023-04-14T13:51:17.534Z,5.50
2023-04-14T13:53:57.362Z,4.90
2023-04-14T13:56:41.596Z,4.60
2023-04-14T13:59:36.561Z,5.10
2023-04-14T14:02:19.466Z,6.00
2023-04-14T14:05:07.436Z,6.20
2023-04-14T14:07:45.050Z,6.10
2023-04-14T14:10:28.177Z,5.50
2023-04-14T14:13:06.911Z,6.00
2023-04-14T14:15:57.969Z,6.40
2023-04-14T14:18:43.646Z,5.80
2023-04-14T14:21:22.582Z,5.70
2023-04-14T14:24:00.566Z,6.30
2023-04-14T14:26:48.494Z,6.90
2023-04-14T14:29:22.714Z,7.50
2023-04-14T14:32:06.510Z,7.50
2023-04-14T14:34:48.972Z,6.80
2023-04-14T14:39:06.154Z,6.60
2023-04-14T14:41:54.467Z,6.60
2023-04-14T14:45:02.439Z,6.90
2023-04-14T14:48:13.536Z,5.90
2023-04-14T14:51:49.860Z,6.90
2023-04-14T14:55:24.043Z,6.50
2023-04-14T14:58:10.818Z,6.70
2023-04-14T15:00:56.402Z,7.40
2023-04-14T15:03:54.083Z,7.90
2023-04-14T15:06:45.266Z,6.90
2023-04-14T15:09:26.975Z,6.70
2023-04-14T15:12:29.903Z,7.00
2023-04-14T15:15:13.897Z,6.40
2023-04-14T15:18:03.338Z,7.00
2023-04-14T15:21:22.105Z,6.70
2023-04-14T15:24:19.184Z,6.60
2023-04-14T15:27:21.457Z,7.30
2023-04-14T15:30:02.792Z,7.20
2023-04-14T15:32:49.842Z,8.10
2023-04-14T15:35:53.430Z,9.30
2023-04-14T15:39:09.467Z,8.90
2023-04-14T15:42:09.025Z,8.50
2023-04-14T15:45:19.509Z,8.00
2023-04-14T15:48:10.273Z,9.40
2023-04-14T15:51:07.251Z,7.40
2023-04-14T15:54:08.556Z,8.80
2023-04-14T15:57:06.949Z,8.50
2023-04-14T15:59:59.804Z,9.20
2023-04-14T16:03:05.224Z,8.90
2023-04-14T16:06:36.635Z,9.50
2023-04-14T16:09:50.713Z,10.10
2023-04-14T16:13:00.376Z,10.30
2023-04-14T16:15:35.983Z,9.90
2023-04-14T16:18:40.013Z,8.90
2023-04-14T16:21:53.863Z,9.20
2023-04-14T16:25:01.942Z,9.40
2023-04-14T16:28:17.429Z,10.10
2023-04-14T16:31:23.988Z,12.50
2023-04-14T16:34:27.064Z,11.50
2023-04-14T16:37:19.798Z,12.70
2023-04-14T16:40:17.317Z,11.80
2023-04-14T16:43:14.164Z,17.30
2023-04-14T16:46:33.355Z,15.00
2023-04-14T16:49:56.887Z,14.60
2023-04-14T16:52:50.470Z,19.20
2023-04-14T16:56:28.036Z,16.90
2023-04-14T16:59:18.724Z,15.80
2023-04-14T17:02:28.406Z,16.60
2023-04-14T17:05:08.552Z,14.70
2023-04-14T17:07:49.597Z,14.80
2023-04-14T17:10:34.299Z,13.00
2023-04-14T17:13:11.209Z,11.70
2023-04-14T17:15:46.357Z,12.30
2023-04-14T17:18:53.144Z,11.80
2023-04-14T17:21:41.703Z,11.50
2023-04-14T17:24:23.762Z,10.10
2023-04-14T17:27:13.308Z,9.50
2023-04-14T17:30:03.796Z,10.00
2023-04-14T17:32:57.915Z,9.10
2023-04-14T17:36:02.584Z,9.40
2023-04-14T17:38:55.446Z,9.60
2023-04-14T17:41:58.377Z,13.20
2023-04-14T17:44:45.416Z,8.10
2023-04-14T17:47:50.070Z,8.20
2023-04-14T17:53:42.087Z,8.20
2023-04-14T17:56:45.600Z,8.00
2023-04-14T17:59:44.313Z,8.50
2023-04-14T18:02:50.154Z,8.30
2023-04-14T18:05:41.974Z,7.70
2023-04-14T18:08:36.088Z,6.80
2023-04-14T18:11:15.216Z,7.00
2023-04-14T18:14:21.422Z,7.30
2023-04-14T18:23:08.433Z,9.00
2023-04-14T18:26:27.093Z,10.40
2023-04-14T18:29:19.385Z,9.20
2023-04-14T18:31:56.895Z,10.60
2023-04-14T18:34:41.825Z,8.40
2023-04-14T18:37:21.847Z,8.70
2023-04-14T18:40:20.848Z,7.40
2023-04-14T18:43:02.988Z,7.60
2023-04-14T18:45:54.355Z,7.80
2023-04-14T18:48:46.595Z,7.30
2023-04-14T18:51:30.180Z,8.50
2023-04-14T18:54:08.943Z,10.20
2023-04-14T18:56:55.725Z,8.90
2023-04-14T18:59:34.994Z,7.80
2023-04-14T19:02:19.348Z,8.30
2023-04-14T19:04:51.916Z,8.20
2023-04-14T19:07:41.594Z,7.40
2023-04-14T19:10:21.250Z,7.90
2023-04-14T19:13:01.423Z,8.30
2023-04-14T19:15:44.294Z,8.00
2023-04-14T19:18:53.732Z,7.50
2023-04-14T19:21:35.723Z,7.80
2023-04-14T19:24:14.065Z,7.70
2023-04-14T19:26:55.911Z,8.30
2023-04-14T19:29:39.741Z,7.70
2023-04-14T19:32:20.233Z,6.90
2023-04-14T19:34:55.135Z,7.80
2023-04-14T19:37:40.973Z,8.10
2023-04-14T19:40:29.529Z,8.20
2023-04-14T19:43:20.290Z,7.70
2023-04-14T19:46:14.000Z,8.50
2023-04-14T19:49:10.257Z,8.30
2023-04-14T19:52:43.926Z,8.10
2023-04-14T19:59:50.312Z,7.00
2023-04-14T20:02:30.422Z,6.60
2023-04-14T20:05:32.124Z,6.90
2023-04-14T20:08:41.984Z,8.30
2023-04-14T20:11:40.440Z,8.90
2023-04-14T20:14:45.615Z,7.90
2023-04-14T20:20:38.083Z,8.40
2023-04-14T20:23:27.702Z,9.10
2023-04-14T20:26:32.877Z,9.10
2023-04-14T20:29:25.620Z,8.50
2023-04-14T20:32:08.618Z,7.90
2023-04-14T20:34:56.900Z,8.50
2023-04-14T20:37:38.222Z,8.60
2023-04-14T20:40:45.422Z,8.90
2023-04-14T20:43:50.073Z,7.70
2023-04-14T20:46:38.403Z,8.70
2023-04-14T20:49:49.746Z,8.70
2023-04-14T20:56:06.433Z,7.40
2023-04-14T20:58:54.363Z,7.20
2023-04-14T21:02:33.565Z,6.90
2023-04-14T21:05:31.663Z,7.10
2023-04-14T21:08:35.601Z,7.70
2023-04-14T21:11:16.697Z,8.40
2023-04-14T21:15:31.487Z,9.30
2023-04-14T21:16:52.661Z,9.30
2023-04-14T21:19:44.409Z,9.50
2023-04-14T21:23:04.666Z,9.00
2023-04-14T21:26:02.828Z,8.80
2023-04-14T21:29:10.556Z,8.00
2023-04-14T21:32:25.066Z,9.10
2023-04-14T21:35:30.791Z,10.00
2023-04-14T21:41:52.392Z,9.00
2023-04-14T21:44:43.135Z,8.70
2023-04-14T21:47:30.740Z,8.30
2023-04-14T21:50:16.826Z,7.00
2023-04-14T21:56:46.614Z,6.90
2023-04-14T21:59:30.131Z,7.30
2023-04-14T22:02:19.819Z,6.70
2023-04-14T22:05:10.891Z,7.20
2023-04-14T22:08:08.257Z,6.70
2023-04-14T22:10:50.468Z,7.50
2023-04-14T22:13:37.032Z,7.80
2023-04-14T22:16:45.809Z,7.90
2023-04-14T22:19:29.773Z,7.40
2023-04-14T22:22:28.104Z,7.80
2023-04-14T22:25:24.620Z,7.30
2023-04-14T22:28:00.137Z,7.90
2023-04-14T22:30:45.485Z,7.80
2023-04-14T22:33:36.488Z,8.00
2023-04-14T22:36:32.096Z,7.10
2023-04-14T22:39:25.512Z,6.90
2023-04-14T22:42:02.607Z,7.00
2023-04-14T22:48:02.529Z,8.10
2023-04-14T22:51:00.257Z,8.20
2023-04-14T22:53:53.313Z,8.80
2023-04-14T22:56:48.396Z,13.70
2023-04-14T22:59:36.902Z,10.30
2023-04-14T23:02:36.456Z,9.10
2023-04-14T23:05:22.680Z,9.30
2023-04-14T23:07:56.590Z,9.20
2023-04-14T23:10:42.209Z,7.50
2023-04-14T23:13:42.630Z,8.70
2023-04-14T23:16:27.834Z,8.10
2023-04-14T23:19:14.614Z,8.40
2023-04-14T23:21:56.362Z,8.30
2023-04-14T23:24:40.797Z,7.70
2023-04-14T23:27:19.347Z,7.10
2023-04-14T23:30:08.326Z,9.10
2023-04-14T23:32:52.871Z,7.80
2023-04-14T23:35:44.064Z,7.10
2023-04-14T23:38:29.924Z,7.50
2023-04-14T23:41:00.692Z,7.20
2023-04-14T23:43:40.379Z,7.80
2023-04-14T23:46:19.761Z,8.10
2023-04-14T23:49:11.268Z,8.00
2023-04-14T23:52:10.178Z,8.60
2023-04-14T23:54:45.445Z,8.10
2023-04-14T23:57:26.084Z,9.30
